Terminal Aerodrome Forecast
Issued by NWS Topeka, KS

Home | Current Version | Previous Version | Graphics & Text | Print | Product List | Glossary On
Versions: 1 2 3 4 5 6 7 8 9 10 11 12 13 14 15 16 17 18 19 20 21 22 23 24
954
FTUS43 KTOP 232039 AAA
TAFTOP
TAF AMD
KTOP 232039Z 2321/2418 01003KT P6SM BKN016
     FM240600 05005KT P6SM BKN015
      TEMPO 2407/2409 2SM -FZDZ OVC004
     FM240900 05006KT 3SM -DZ OVC004=

USA.gov is the U.S. government's official web portal to all federal, state and local government web resources and services.